• Join FlightAware (Why Join?)
  • Login
  • US Flag 
03:14AM EDT


 

Airport Tracker/Info


-or-


 

Live Flight TrackerFlight Track Log ✈ XOJ549 ✈ 02-May-2013 ✈ KILM - KHPN

Flight Track Log - Related Links

Times and Time Zones

All times are in EDT time to prevent confusion due to time zone crossing. See the XOJ549 flight status page for this flight to view local times or setup timezone preferences in your user account.

Time Position Orientation Groundspeed Altitude Reporting Facility
EDT Latitude Longitude Course Direction KTS MPH feet Rate Location/Type
10:01AM 34.3239 -77.8400 32° Northeast 209 241 5,300  Level Washington Center
10:02AM 34.3914 -77.7992 27° Northeast 236 272 9,800 3,120 Climbing Washington Center
10:03AM 34.4717 -77.7483 28° Northeast 279 321 11,600 2,940 Climbing Washington Center
10:04AM 34.5539 -77.7003 26° Northeast 309 356 15,800 3,480 Climbing Washington Center
10:05AM 34.6425 -77.6444 27° Northeast 335 386 18,500 3,000 Climbing Washington Center
10:06AM 34.8243 -77.5359 32° Northeast  Level FlightAware Approximate
10:06AM 34.7372 -77.5886 26° Northeast 356 410 21,800  Level Washington Center
10:07AM 34.8322 -77.5228 30° Northeast 376 433 25,200 2,880 Climbing Washington Center
10:08AM 34.9314 -77.4617 27° Northeast 388 447 27,700 2,340 Climbing Washington Center
10:09AM 35.0386 -77.3983 26° Northeast 401 461 30,000 2,100 Climbing Washington Center
10:10AM 35.1419 -77.3319 28° Northeast 407 468 31,900 1,740 Climbing Washington Center
10:11AM 35.2533 -77.2656 26° Northeast 424 488 33,500 1,620 Climbing Washington Center
10:12AM 35.3692 -77.1942 27° Northeast 435 501 35,200 1,800 Climbing Washington Center
10:13AM 35.4806 -77.1250 27° Northeast 441 507 37,200 1,980 Climbing Washington Center
10:14AM 35.5919 -77.0583 26° Northeast 441 507 39,200 1,800 Climbing Washington Center
10:15AM 35.6931 -76.9883 29° Northeast 426 490 40,800 840 Climbing Washington Center
10:16AM 35.7981 -76.9211 27° Northeast 421 484 41,000 60 Climbing Washington Center
10:17AM 35.9094 -76.8564 25° Northeast 421 484 41,000  Level Washington Center
10:18AM 36.0125 -76.7886 28° Northeast 421 484 41,000  Level Washington Center
10:19AM 36.1214 -76.7208 27° Northeast 426 490 41,000  Level Washington Center
10:20AM 36.2286 -76.6556 26° Northeast 426 490 41,000  Level Washington Center
10:21AM 36.3375 -76.5872 27° Northeast 426 490 41,000  Level Washington Center
10:22AM 36.4425 -76.5214 27° Northeast 426 490 41,000  Level Washington Center
10:23AM 36.5514 -76.4531 27° Northeast 426 490 41,000  Level Washington Center
10:24AM 36.6561 -76.3867 27° Northeast 426 490 41,000  Level Washington Center
10:25AM 36.7631 -76.3128 29° Northeast 431 496 41,000  Level Washington Center
10:26AM 36.8678 -76.2461 27° Northeast 431 496 41,000  Level Washington Center
10:27AM 36.9767 -76.1769 27° Northeast 431 496 41,000  Level Washington Center
10:28AM 37.0875 -76.1100 26° Northeast 431 496 41,000  Level Washington Center
10:29AM 37.1961 -76.0403 27° Northeast 431 496 41,000  Level Washington Center
10:30AM 37.3008 -75.9706 28° Northeast 425 489 41,000  Level Washington Center
10:31AM 37.4072 -75.9031 27° Northeast 425 489 41,000  Level Washington Center
10:32AM 37.5139 -75.8328 28° Northeast 425 489 41,000  Level Washington Center
10:33AM 37.6183 -75.7597 29° Northeast 425 489 41,000  Level Washington Center
10:34AM 37.7267 -75.6942 26° Northeast 430 495 41,000  Level Washington Center
10:35AM 37.8311 -75.6206 29° Northeast 430 495 41,000  Level Washington Center
10:36AM 37.9375 -75.5522 27° Northeast 430 495 41,000  Level Washington Center
10:37AM 38.0458 -75.4836 27° Northeast 430 495 41,000  Level Washington Center
10:38AM 38.1522 -75.4122 28° Northeast 425 489 41,000  Level Washington Center
10:39AM 38.2606 -75.3483 25° Northeast 431 496 41,000  Level Washington Center
10:40AM 38.3644 -75.2714 30° Northeast 425 489 41,000  Level Washington Center
10:41AM 38.4728 -75.2072 25° Northeast 425 489 41,000  Level Washington Center
10:42AM 38.5808 -75.1350 28° Northeast 425 489 41,000  Level Washington Center
10:43AM 38.6892 -75.0678 26° Northeast 425 489 41,000 -60 Level Washington Center
10:44AM 38.7950 -75.0003 26° Northeast 425 489 40,900 -540 Descending Washington Center
10:45AM 38.8906 -74.9169 34° Northeast 425 489 40,000 -1,380 Descending Washington Center
10:46AM 38.9839 -74.8333 35° Northeast 413 475 38,200 -2,100 Descending Washington Center
10:47AM 39.0792 -74.7494 34° Northeast 413 475 35,900 -2,520 Descending Washington Center
10:48AM 39.1908 -74.6489 35° Northeast 421 484 33,200 -2,280 Descending Washington Center
10:49AM 39.2486 -74.6019 32° Northeast 451 519 32,300 -2,040 Descending New York Center
10:50AM 39.3369 -74.5181 36° Northeast 441 507 30,000 -2,340 Descending New York Center
10:51AM 39.4336 -74.4317 35° Northeast 430 495 27,700 -2,460 Descending New York Center
10:52AM 39.5322 -74.3400 36° Northeast 411 473 25,200 -1,920 Descending New York Center
10:53AM 39.6158 -74.2633 35° Northeast 382 440 23,900 -1,140 Descending New York Center
10:54AM 39.6911 -74.1808 40° Northeast 368 423 22,900 -1,020 Descending New York Center
10:55AM 39.7644 -74.1033 39° Northeast 349 402 21,900 -1,020 Descending New York Center
10:56AM 39.8375 -74.0258 39° Northeast 342 394 20,900 -840 Descending New York Center
10:57AM 39.9569 -73.8989 39° Northeast 355 409 19,800 -660 Descending Boston Center
10:58AM 40.0353 -73.8114 41° Northeast 361 415 19,200 -540 Descending Boston Center
10:59AM 40.1111 -73.7289 40° Northeast 361 415 18,800 -540 Descending Boston Center
11:00AM 40.1911 -73.6517 36° Northeast 356 410 18,200 -540 Descending Boston Center
11:01AM 40.2669 -73.5686 40° Northeast 356 410 17,800 -540 Descending Boston Center
11:02AM 40.3408 -73.4856 41° Northeast 356 410 17,200 -420 Descending Boston Center
11:03AM 40.4328 -73.4406 20° North 345 397 17,000 -120 Descending Boston Center
11:04AM 40.5311 -73.4039 16° North 345 397 17,000 -120 Level Boston Center
11:05AM 40.6231 -73.3697 16° North 351 404 16,800 -360 Descending Boston Center
11:06AM 40.6833 -73.3500 14° North 311 358 16,500 -720 Descending New York TRACON
11:07AM 40.7667 -73.3167 17° North 304 350 15,700 -1,020 Descending New York TRACON
11:08AM 40.8167 -73.2500 45° Northeast 281 323 14,400 -1,260 Descending New York TRACON
11:09AM 40.8667 -73.1500 57° Northeast 316 364 13,100 -1,380 Descending New York TRACON
11:10AM 40.9000 -73.0667 62° Northeast 290 334 11,700 -1,620 Descending New York TRACON
11:11AM 40.9833 -73.0500 North 272 313 9,900 -1,860 Descending New York TRACON
11:12AM 41.0500 -73.0833 339° North 278 320 8,200 -1,560 Descending New York TRACON
11:13AM 41.1167 -73.1167 339° North 286 329 7,000 -1,200 Descending New York TRACON
11:14AM 41.1333 -73.2333 281° West 289 333 5,900 -1,080 Descending New York TRACON
11:15AM 41.1500 -73.3333 283° West 284 327 4,900 -1,020 Descending New York TRACON
11:16AM 41.1667 -73.4333 283° West 276 318 3,900 -960 Descending New York TRACON
11:17AM 41.1833 -73.5167 285° West 245 282 3,000 -720 Descending New York TRACON
11:18AM 41.2000 -73.6000 285° West 227 261 2,500 -540 Descending New York TRACON
11:19AM 41.2000 -73.6833 270° West 204 235 2,000 -300 Descending New York TRACON
11:20AM 41.1667 -73.7333 228° Southwest 161 185 2,000 -60 Level New York TRACON
11:21AM 41.1333 -73.7500 201° Southwest 173 199 1,900 -480 Descending New York TRACON
11:22AM 41.1000 -73.7333 159° South 137 158 1,100 -900 Descending New York TRACON
11:24AM 41.0667 -73.7000 151° Southeast  Level FlightAware Approximate
11:31AM 41.0669 -73.7076 151° Southeast  Level Estimated
11:32AM 41.0667 -73.7000 151° Southeast  Level FlightAware Approximate